Time;durP1;ratioP1;P1;durP2;ratioP2;P2;SDS_P1;SDS_P2;PMS_P1;PMS_P2;Temp;Humidity;BMP_temperature;BMP_pressure;BME280_temperature;BME280_humidity;BME280_pressure;Samples;Min_cycle;Max_cycle;Signal;HPM_P1;HPM_P2
2022/11/24 12:14:23;;;;;;;22.05;16.15;;;;;;;1.09;100.00;98914.08;1814735;78;22945;-77
2022/11/24 12:17:18;;;;;;;21.40;16.27;;;;;;;1.13;100.00;98921.44;1796909;79;21045;-78
2022/11/24 12:20:01;;;;;;;22.07;16.15;;;;;;;1.08;100.00;98929.86;1794783;80;21838;-79
2022/11/24 12:22:54;;;;;;;22.82;16.35;;;;;;;0.96;100.00;98932.51;1796584;80;21666;-79
2022/11/24 12:25:50;;;;;;;23.05;16.75;;;;;;;0.96;100.00;98932.51;1765936;81;21069;-78
2022/11/24 12:28:38;;;;;;;21.37;16.30;;;;;;;0.92;100.00;98925.45;1766104;81;21077;-80
2022/11/24 12:31:07;;;;;;;21.12;16.73;;;;;;;0.85;100.00;98937.34;1767051;81;21065;-79
2022/11/24 12:34:06;;;;;;;21.87;15.55;;;;;;;0.82;100.00;98929.73;1766803;80;21125;-78
2022/11/24 12:37:20;;;;;;;23.92;16.77;;;;;;;0.74;100.00;98918.84;1766583;81;21057;-79
2022/11/24 12:40:01;;;;;;;26.12;18.00;;;;;;;0.77;100.00;98919.72;1713510;83;21557;-78
2022/11/24 12:43:05;;;;;;;24.00;17.02;;;;;;;0.78;100.00;98923.22;1767774;80;21081;-79
2022/11/24 12:45:56;;;;;;;24.18;16.52;;;;;;;0.77;100.00;98925.59;1765940;80;22247;-79
2022/11/24 12:49:00;;;;;;;28.23;18.65;;;;;;;0.82;100.00;98936.42;1764719;81;21655;-79
2022/11/24 12:51:41;;;;;;;24.23;17.17;;;;;;;0.78;100.00;98936.62;1764709;80;21137;-78
2022/11/24 12:54:13;;;;;;;23.80;17.20;;;;;;;0.83;100.00;98934.87;1730351;83;21038;-78
2022/11/24 12:56:49;;;;;;;23.07;17.05;;;;;;;0.86;100.00;98935.75;1724797;83;21110;-78
2022/11/24 12:59:42;;;;;;;24.92;17.80;;;;;;;0.85;100.00;98934.66;1724113;83;21051;-78
2022/11/24 13:02:32;;;;;;;24.00;17.23;;;;;;;0.90;100.00;98935.59;1725399;82;21010;-78
2022/11/24 13:05:21;;;;;;;26.20;17.77;;;;;;;0.94;100.00;98939.97;1725389;83;20955;-78
2022/11/24 13:07:57;;;;;;;23.00;17.12;;;;;;;0.88;100.00;98945.73;1725340;83;21069;-78
2022/11/24 13:10:27;;;;;;;24.32;17.45;;;;;;;0.97;100.00;98944.35;1735712;82;20963;-78
2022/11/24 13:13:01;;;;;;;28.15;19.98;;;;;;;1.02;100.00;98947.69;1755200;82;21054;-77
2022/11/24 13:15:28;;;;;;;30.43;19.20;;;;;;;1.04;100.00;98947.45;1755193;81;20979;-78
2022/11/24 13:17:55;;;;;;;27.50;18.25;;;;;;;0.99;100.00;98948.16;1727907;82;21062;-78
2022/11/24 13:20:31;;;;;;;29.98;19.67;;;;;;;1.04;100.00;98953.62;1751299;81;20993;-78
2022/11/24 13:23:02;;;;;;;26.45;18.40;;;;;;;1.06;100.00;98951.55;1748204;82;21537;-78
2022/11/24 13:25:32;;;;;;;25.77;17.92;;;;;;;1.03;100.00;98956.55;1727341;82;20983;-78
2022/11/24 13:28:01;;;;;;;26.25;17.92;;;;;;;1.06;100.00;98959.59;1724224;83;21038;-77
2022/11/24 13:30:39;;;;;;;29.55;18.82;;;;;;;1.06;100.00;98965.47;1724515;82;21573;-78
2022/11/24 13:33:17;;;;;;;25.80;18.55;;;;;;;0.99;100.00;98970.38;1727874;82;21026;-77
2022/11/24 13:36:07;;;;;;;26.68;19.02;;;;;;;1.01;100.00;98970.17;1719083;83;21038;-76
2022/11/24 13:38:44;;;;;;;29.37;19.73;;;;;;;1.05;100.00;98971.35;1718560;82;21102;-76
2022/11/24 13:41:35;;;;;;;30.20;20.57;;;;;;;1.04;100.00;98965.69;1725212;80;21025;-76
2022/11/24 13:44:20;;;;;;;28.73;18.95;;;;;;;0.99;100.00;98969.59;1722509;83;21090;-73
2022/11/24 13:47:10;;;;;;;32.45;20.65;;;;;;;1.01;100.00;98967.48;1722542;83;21541;-76
2022/11/24 13:49:41;;;;;;;29.15;20.43;;;;;;;1.07;100.00;98967.09;1689201;82;21066;-79
2022/11/24 13:52:40;;;;;;;32.28;21.73;;;;;;;1.00;100.00;98967.19;1738627;82;21656;-79
2022/11/24 13:55:20;;;;;;;29.80;20.57;;;;;;;0.94;100.00;98975.62;1736297;80;21041;-78
2022/11/24 13:57:59;;;;;;;31.90;20.82;;;;;;;0.96;100.00;98968.17;1742548;82;21078;-77
2022/11/24 14:00:32;;;;;;;34.63;23.73;;;;;;;1.01;100.00;98968.83;1727386;82;20967;-77
2022/11/24 14:03:39;;;;;;;32.93;21.48;;;;;;;0.95;100.00;98967.90;1724740;82;21695;-77
2022/11/24 14:06:09;;;;;;;30.25;20.37;;;;;;;0.90;100.00;98962.39;1736815;80;21061;-78
2022/11/24 14:08:36;;;;;;;31.12;20.80;;;;;;;0.91;100.00;98972.08;1737775;80;21070;-77
2022/11/24 14:15:24;;;;;;;40.43;23.55;;;;;;;0.79;100.00;98960.48;1853900;74;22922;-77
2022/11/24 14:17:51;;;;;;;33.95;21.90;;;;;;;0.79;100.00;98977.08;1853356;75;21034;-75
2022/11/24 14:20:24;;;;;;;34.38;21.30;;;;;;;0.74;100.00;98979.64;1835456;77;21048;-77
2022/11/24 14:30:21;;;;;;;27.77;19.35;;;;;;;0.85;100.00;98978.87;1811383;79;23490;-73
2022/11/24 14:32:59;;;;;;;32.15;20.60;;;;;;;0.84;100.00;98987.94;1761060;79;21031;-73
2022/11/24 14:35:32;;;;;;;31.37;20.75;;;;;;;0.91;100.00;98987.33;1737798;80;22264;-73
2022/11/24 14:38:01;;;;;;;32.15;21.60;;;;;;;0.90;100.00;98988.37;1756906;80;21058;-71
2022/11/24 14:40:46;;;;;;;31.52;21.15;;;;;;;0.82;100.00;98997.53;1751460;80;21363;-74
2022/11/24 14:43:23;;;;;;;32.85;20.08;;;;;;;0.88;100.00;98999.84;1748964;81;21153;-73
2022/11/24 14:46:06;;;;;;;32.83;20.90;;;;;;;0.87;100.00;98995.00;1747419;80;21033;-74
2022/11/24 14:48:40;;;;;;;30.60;19.70;;;;;;;0.82;100.00;98998.05;1741989;80;21682;-73
2022/11/24 14:51:14;;;;;;;29.23;19.30;;;;;;;0.86;100.00;98993.88;1742370;80;21019;-72
2022/11/24 14:53:43;;;;;;;31.05;20.15;;;;;;;0.83;100.00;98996.50;1771474;80;21085;-72
2022/11/24 14:56:24;;;;;;;31.90;20.27;;;;;;;0.81;100.00;99007.98;1748178;82;20964;-73
2022/11/24 14:58:51;;;;;;;32.88;21.10;;;;;;;0.88;100.00;99007.37;1758787;80;20995;-72
2022/11/24 15:01:29;;;;;;;36.17;22.80;;;;;;;0.82;100.00;99012.79;1762947;80;21500;-72
2022/11/24 15:04:22;;;;;;;34.43;22.25;;;;;;;0.83;100.00;99018.45;1699385;83;21032;-71
2022/11/24 15:07:01;;;;;;;41.68;25.70;;;;;;;0.91;100.00;99004.75;1678002;83;21098;-72
2022/11/24 15:09:38;;;;;;;41.00;25.35;;;;;;;0.83;100.00;99010.41;1655666;83;21088;-73
2022/11/24 15:12:12;;;;;;;40.63;25.00;;;;;;;0.80;100.00;99009.02;1711193;82;21141;-72
2022/11/24 15:14:51;;;;;;;45.00;26.93;;;;;;;0.84;100.00;99012.88;1703548;82;21138;-73
2022/11/24 15:17:20;;;;;;;51.65;29.63;;;;;;;0.89;100.00;99018.36;1690484;82;21074;-74
2022/11/24 15:19:59;;;;;;;68.92;34.58;;;;;;;0.84;100.00;99010.20;1708724;82;21035;-74
2022/11/24 15:22:42;;;;;;;59.65;30.92;;;;;;;0.82;100.00;99008.77;1703244;83;21082;-74
2022/11/24 15:25:28;;;;;;;57.53;30.82;;;;;;;0.85;100.00;99021.19;1684467;84;21604;-74
2022/11/24 15:27:54;;;;;;;79.70;36.65;;;;;;;0.88;100.00;99022.11;1705532;82;21059;-71
2022/11/24 15:30:21;;;;;;;;;;;;;;;0.88;100.00;99022.62;1679359;83;21023;-72
2022/11/24 15:32:54;;;;;;;58.98;29.95;;;;;;;0.80;100.00;99024.27;1705342;82;20291;-71
2022/11/24 15:35:21;;;;;;;54.93;29.27;;;;;;;0.71;100.00;99019.73;1689634;83;21062;-72
2022/11/24 15:37:48;;;;;;;42.20;26.35;;;;;;;0.77;100.00;99020.70;1707373;82;21561;-71
2022/11/24 15:40:15;;;;;;;45.83;26.20;;;;;;;0.79;100.00;99023.45;1707954;84;21098;-72
2022/11/24 15:42:44;;;;;;;34.70;22.07;;;;;;;0.73;100.00;99028.89;1699976;82;21554;-71
2022/11/24 15:45:11;;;;;;;41.85;24.45;;;;;;;0.77;100.00;99034.92;1747502;81;21060;-71
2022/11/24 15:47:37;;;;;;;42.00;23.95;;;;;;;0.85;100.00;99029.78;1707622;84;21449;-72
2022/11/24 15:50:05;;;;;;;45.23;26.12;;;;;;;0.87;100.00;99036.54;1762601;80;21030;-72
2022/11/24 15:52:32;;;;;;;45.48;25.60;;;;;;;0.85;100.00;99039.16;1748420;80;21035;-71
2022/11/24 15:54:58;;;;;;;41.08;24.52;;;;;;;0.86;100.00;99034.07;1747353;80;21426;-72
2022/11/24 15:57:24;;;;;;;;;;;;;;;0.93;100.00;99034.28;1721573;82;21104;-70
2022/11/24 15:59:54;;;;;;;44.08;25.85;;;;;;;0.97;100.00;99035.98;1744322;80;20099;-70
2022/11/24 16:02:22;;;;;;;44.38;25.08;;;;;;;0.82;100.00;99036.91;1722366;82;21027;-70
2022/11/24 16:04:48;;;;;;;42.05;24.55;;;;;;;0.81;100.00;99036.62;1756977;80;21074;-71
2022/11/24 16:07:15;;;;;;;50.95;26.25;;;;;;;0.87;100.00;99037.88;1716304;83;21029;-71
2022/11/24 16:09:42;;;;;;;50.70;26.95;;;;;;;0.88;100.00;99036.84;1746033;82;21034;-72
2022/11/24 16:12:09;;;;;;;40.65;24.15;;;;;;;0.86;100.00;99035.41;1729233;81;21463;-71
2022/11/24 16:14:36;;;;;;;41.15;25.10;;;;;;;0.81;100.00;99040.13;1740025;81;21014;-70
2022/11/24 16:17:04;;;;;;;47.60;26.45;;;;;;;0.86;100.00;99036.23;1748035;80;21050;-71
2022/11/24 16:19:31;;;;;;;48.28;27.45;;;;;;;0.84;100.00;99028.13;1747366;80;21121;-71
2022/11/24 16:21:57;;;;;;;47.03;28.12;;;;;;;0.76;100.00;99031.94;1743253;82;21052;-71
2022/11/24 16:24:23;;;;;;;45.15;25.50;;;;;;;0.75;100.00;99030.30;1738554;82;21051;-72
2022/11/24 16:26:50;;;;;;;;;;;;;;;0.81;100.00;99020.55;1746387;80;21970;-70
2022/11/24 16:29:16;;;;;;;42.88;24.50;;;;;;;0.73;100.00;99024.36;1746985;80;20114;-71
2022/11/24 16:33:52;;;;;;;47.67;25.50;;;;;;;0.67;100.00;99020.42;1815761;78;23353;-69
2022/11/24 16:36:19;;;;;;;42.65;25.25;;;;;;;0.55;100.00;99031.59;1779259;78;21082;-70
2022/11/24 16:38:45;;;;;;;39.35;23.65;;;;;;;0.59;100.00;99034.94;1787726;78;22278;-70
2022/11/24 16:41:12;;;;;;;53.75;27.22;;;;;;;0.64;100.00;99043.65;1744626;81;21034;-69
2022/11/24 16:43:39;;;;;;;46.02;25.50;;;;;;;0.64;100.00;99049.00;1743602;80;21024;-69
2022/11/24 16:46:19;;;;;;;49.85;27.30;;;;;;;0.72;100.00;99051.36;1753802;80;21080;-68
2022/11/24 16:48:49;;;;;;;49.98;26.70;;;;;;;0.73;100.00;99051.66;1731441;81;21051;-69
2022/11/24 16:51:17;;;;;;;45.35;26.27;;;;;;;0.73;100.00;99053.83;1720995;81;21087;-69
2022/11/24 16:53:43;;;;;;;46.68;26.35;;;;;;;0.81;100.00;99052.19;1721443;81;21023;-68
2022/11/24 16:56:10;;;;;;;51.28;29.00;;;;;;;0.86;100.00;99058.19;1731118;80;21102;-68
2022/11/24 16:58:38;;;;;;;49.63;26.25;;;;;;;0.78;100.00;99053.95;1729089;82;21881;-68
2022/11/24 17:01:07;;;;;;;39.50;24.65;;;;;;;0.82;100.00;99063.18;1743066;81;21041;-68
2022/11/24 17:03:37;;;;;;;40.43;24.65;;;;;;;0.90;100.00;99063.40;1729522;81;21488;-68
2022/11/24 17:14:00;;;;;;;47.10;27.37;;;;;;;0.60;100.00;99062.55;1794787;78;22332;-68
2022/11/24 17:16:26;;;;;;;46.33;27.30;;;;;;;0.57;100.00;99065.67;1762116;80;20992;-70
2022/11/24 17:18:53;;;;;;;43.48;26.70;;;;;;;0.66;100.00;99071.84;1763934;80;21003;-69
2022/11/24 17:21:24;;;;;;;44.15;27.13;;;;;;;0.74;100.00;99078.76;1770972;80;21708;-70
2022/11/24 17:23:56;;;;;;;48.38;28.47;;;;;;;0.77;100.00;99078.30;1766793;80;21002;-71
2022/11/24 17:26:24;;;;;;;47.08;28.32;;;;;;;0.72;100.00;99086.19;1737708;80;21070;-70
2022/11/24 17:28:50;;;;;;;45.48;27.95;;;;;;;0.74;100.00;99088.14;1769074;80;21024;-70
2022/11/24 17:31:29;;;;;;;48.08;28.30;;;;;;;0.81;100.00;99089.70;1763894;80;21040;-70
2022/11/24 17:33:56;;;;;;;53.83;27.98;;;;;;;0.85;100.00;99089.52;1761832;80;21585;-71
2022/11/24 17:36:23;;;;;;;41.55;25.23;;;;;;;0.84;100.00;99089.77;1761386;80;21015;-70
2022/11/24 17:38:49;;;;;;;;;;;;;;;0.81;100.00;99090.22;1769083;80;21030;-71
2022/11/24 17:41:17;;;;;;;37.63;23.07;;;;;;;0.85;100.00;99099.45;1763145;80;20184;-70
2022/11/24 17:43:49;;;;;;;37.25;24.18;;;;;;;0.88;100.00;99103.02;1763530;80;21000;-70
2022/11/24 17:46:16;;;;;;;53.92;25.27;;;;;;;0.91;100.00;99094.00;1765404;80;21055;-70
2022/11/24 17:48:42;;;;;;;36.93;22.87;;;;;;;0.86;100.00;99092.50;1767281;80;21603;-69
2022/11/24 17:51:12;;;;;;;36.75;22.02;;;;;;;0.82;100.00;99087.30;1764281;80;21644;-70
2022/11/24 17:53:44;;;;;;;50.52;24.47;;;;;;;0.88;100.00;99094.97;1762872;80;21402;-69
2022/11/24 17:56:14;;;;;;;40.98;23.47;;;;;;;0.91;100.00;99095.86;1759777;80;21137;-70
2022/11/24 17:58:41;;;;;;;42.20;23.32;;;;;;;0.83;100.00;99096.98;1767291;80;21047;-70
2022/11/24 18:01:09;;;;;;;33.80;22.20;;;;;;;0.83;100.00;99097.50;1769393;80;22231;-71
2022/11/24 18:03:38;;;;;;;42.70;24.12;;;;;;;0.85;100.00;99101.58;1760698;80;21105;-69
2022/11/24 18:06:13;;;;;;;35.83;21.68;;;;;;;0.78;100.00;99099.50;1761665;80;21060;-69
2022/11/24 18:08:44;;;;;;;38.33;20.35;;;;;;;0.79;100.00;99092.28;1673983;83;21032;-69
2022/11/24 18:11:14;;;;;;;53.15;22.85;;;;;;;0.83;100.00;99090.80;1707549;83;21095;-69
2022/11/24 18:13:42;;;;;;;37.55;21.55;;;;;;;0.74;100.00;99092.98;1655626;84;21139;-69
2022/11/24 18:16:11;;;;;;;37.15;22.02;;;;;;;0.73;100.00;99101.23;1755209;80;21094;-70
2022/11/24 18:18:38;;;;;;;34.60;19.77;;;;;;;0.79;100.00;99103.82;1740417;81;21154;-71
2022/11/24 18:21:06;;;;;;;36.15;21.25;;;;;;;0.78;100.00;99101.39;1743263;81;21098;-70
2022/11/24 18:23:36;;;;;;;;;;;;;;;0.75;100.00;99103.14;1747264;81;21042;-71
2022/11/24 18:26:02;;;;;;;32.90;19.75;;;;;;;0.77;100.00;99105.92;1749959;81;20172;-70
2022/11/24 18:28:30;;;;;;;35.17;19.37;;;;;;;0.75;100.00;99110.67;1755209;81;21063;-69
2022/11/24 18:31:02;;;;;;;;;;;;;;;0.71;100.00;99104.11;1766355;80;21519;-70
2022/11/24 18:33:28;;;;;;;32.23;18.20;;;;;;;0.73;100.00;99107.92;1755152;81;20188;-70
2022/11/24 18:35:57;;;;;;;40.03;20.20;;;;;;;0.76;100.00;99114.99;1748600;81;21138;-70
2022/11/24 18:38:25;;;;;;;35.78;20.35;;;;;;;0.72;100.00;99106.28;1745605;81;21091;-69
2022/11/24 18:40:53;;;;;;;36.00;21.05;;;;;;;0.68;100.00;99111.78;1682003;84;21087;-68
2022/11/24 18:43:21;;;;;;;38.15;21.10;;;;;;;0.74;100.00;99122.45;1748952;81;21586;-69
2022/11/24 18:45:48;;;;;;;38.05;20.70;;;;;;;0.80;100.00;99120.72;1731918;81;21022;-71
2022/11/24 18:48:14;;;;;;;32.40;19.85;;;;;;;0.76;100.00;99116.84;1749189;81;21074;-71
2022/11/24 18:50:41;;;;;;;40.52;20.85;;;;;;;0.77;100.00;99114.47;1757431;81;21075;-71
2022/11/24 18:53:07;;;;;;;;;;;;;;;0.81;100.00;99113.81;1750705;81;21110;-71
2022/11/24 18:55:34;;;;;;;31.40;19.20;;;;;;;0.80;100.00;99122.06;1754613;81;20156;-71
2022/11/24 18:58:01;;;;;;;34.20;20.05;;;;;;;0.72;100.00;99120.49;1764739;81;21059;-71
2022/11/24 19:00:29;;;;;;;37.67;20.75;;;;;;;0.79;100.00;99122.58;1763753;81;21345;-72
2022/11/24 19:02:56;;;;;;;32.35;18.17;;;;;;;0.84;100.00;99122.73;1748960;81;21068;-70
2022/11/24 19:05:22;;;;;;;30.95;18.17;;;;;;;0.77;100.00;99123.34;1755479;81;21461;-71
2022/11/24 19:07:49;;;;;;;30.43;19.27;;;;;;;0.80;100.00;99120.72;1734620;81;21375;-71
2022/11/24 19:10:16;;;;;;;38.28;20.52;;;;;;;0.87;100.00;99121.47;1747744;81;20967;-71
2022/11/24 19:12:44;;;;;;;44.40;21.00;;;;;;;0.85;100.00;99132.39;1766671;81;21083;-71
2022/11/24 19:15:12;;;;;;;32.40;19.65;;;;;;;0.83;100.00;99132.33;1754316;81;21071;-70
2022/11/24 19:17:39;;;;;;;33.85;19.17;;;;;;;0.81;100.00;99131.75;1754084;81;21043;-70
2022/11/24 19:20:06;;;;;;;27.45;17.05;;;;;;;0.87;100.00;99136.20;1743512;81;21024;-70
2022/11/24 19:22:33;;;;;;;38.28;20.05;;;;;;;0.89;100.00;99130.08;1748164;81;21075;-71
2022/11/24 19:24:59;;;;;;;;;;;;;;;0.85;100.00;99136.96;1749904;81;21584;-71
2022/11/24 19:27:26;;;;;;;31.60;18.30;;;;;;;0.83;100.00;99133.16;1747397;81;20392;-70
2022/11/24 19:29:53;;;;;;;43.90;20.00;;;;;;;0.84;100.00;99132.12;1747502;81;20958;-71
2022/11/24 19:32:20;;;;;;;42.23;19.85;;;;;;;0.82;100.00;99134.70;1757648;79;21055;-71
2022/11/24 19:34:46;;;;;;;29.45;17.67;;;;;;;0.78;100.00;99134.88;1761098;81;21385;-71
2022/11/24 19:37:12;;;;;;;27.20;17.00;;;;;;;0.80;100.00;99134.94;1746630;81;21074;-71
2022/11/24 19:39:39;;;;;;;35.40;19.37;;;;;;;0.82;100.00;99139.55;1753523;81;21485;-73
2022/11/24 19:42:05;;;;;;;49.27;23.18;;;;;;;0.79;100.00;99144.53;1732670;81;21035;-71
2022/11/24 19:44:32;;;;;;;51.18;22.00;;;;;;;0.75;100.00;99154.87;1748870;81;20999;-71
2022/11/24 19:46:58;;;;;;;;;;;;;;;0.80;100.00;99158.23;1754173;79;21050;-70
2022/11/24 19:49:25;;;;;;;32.33;19.07;;;;;;;0.88;100.00;99154.75;1740059;81;20115;-71
2022/11/24 19:51:52;;;;;;;38.23;19.85;;;;;;;0.88;100.00;99156.61;1734707;81;21091;-72
2022/11/24 19:54:18;;;;;;;44.55;20.85;;;;;;;0.88;100.00;99159.28;1744941;81;21046;-72
2022/11/24 19:56:45;;;;;;;35.70;20.82;;;;;;;0.83;100.00;99160.46;1711544;81;21062;-71
2022/11/24 19:59:14;;;;;;;33.48;19.62;;;;;;;0.83;100.00;99160.46;1752051;81;20991;-70
2022/11/24 20:01:41;;;;;;;32.80;18.98;;;;;;;0.91;100.00;99166.88;1750066;81;20999;-71
2022/11/24 20:04:11;;;;;;;33.33;18.57;;;;;;;0.91;100.00;99166.36;1759408;81;21045;-71
2022/11/24 20:06:40;;;;;;;33.63;19.07;;;;;;;0.88;100.00;99166.81;1755981;81;21031;-70
2022/11/24 20:09:09;;;;;;;28.25;17.60;;;;;;;0.89;100.00;99167.08;1718667;82;21076;-71
2022/11/24 20:11:36;;;;;;;36.63;18.80;;;;;;;0.92;100.00;99169.86;1736029;81;21085;-70
2022/11/24 20:14:03;;;;;;;64.47;19.15;;;;;;;0.92;100.00;99167.19;1703050;83;21012;-71
2022/11/24 20:16:30;;;;;;;;;;;;;;;0.88;100.00;99176.19;1725233;82;21032;-70
2022/11/24 20:19:04;;;;;;;28.47;17.15;;;;;;;0.91;100.00;99172.23;1667839;84;20109;-71
2022/11/24 20:21:31;;;;;;;28.35;16.97;;;;;;;0.91;100.00;99177.08;1751274;81;21035;-71
2022/11/24 20:24:09;;;;;;;25.10;15.48;;;;;;;0.86;100.00;99178.77;1744742;81;21028;-71
2022/11/24 20:26:39;;;;;;;31.62;16.60;;;;;;;0.83;100.00;99184.06;1751641;81;21063;-71
2022/11/24 20:29:08;;;;;;;38.48;16.70;;;;;;;0.92;100.00;99185.94;1769267;81;21007;-71
2022/11/24 20:31:44;;;;;;;32.17;16.32;;;;;;;0.96;100.00;99189.27;1765863;81;21066;-71
2022/11/24 20:34:10;;;;;;;27.95;16.70;;;;;;;0.93;100.00;99191.58;1752247;81;21051;-72
2022/11/24 20:36:39;;;;;;;27.58;16.32;;;;;;;0.93;100.00;99187.55;1751318;81;21638;-70
2022/11/24 20:39:12;;;;;;;30.32;15.50;;;;;;;0.97;100.00;99183.39;1757840;81;21019;-71
2022/11/24 20:41:39;;;;;;;38.98;16.30;;;;;;;0.95;100.00;99185.48;1760688;81;21069;-70
2022/11/24 20:44:07;;;;;;;24.00;15.30;;;;;;;0.91;100.00;99186.97;1762280;81;21154;-70
2022/11/24 20:46:35;;;;;;;33.92;16.48;;;;;;;0.91;100.00;99181.61;1744105;81;21094;-71
2022/11/24 20:49:03;;;;;;;27.45;14.58;;;;;;;0.95;100.00;99185.48;1750903;81;21078;-70
2022/11/24 20:51:33;;;;;;;35.25;15.70;;;;;;;0.94;100.00;99181.98;1731946;82;21696;-71
2022/11/24 20:54:03;;;;;;;24.32;15.48;;;;;;;0.88;100.00;99183.41;1753080;81;21850;-71
2022/11/24 20:56:33;;;;;;;23.05;15.75;;;;;;;0.87;100.00;99187.11;1755613;79;21088;-71
2022/11/24 20:59:00;;;;;;;23.92;15.80;;;;;;;0.93;100.00;99186.22;1754699;81;21030;-71
2022/11/24 21:01:37;;;;;;;33.48;15.28;;;;;;;0.94;100.00;99190.02;1756773;81;21542;-71
2022/11/24 21:04:05;;;;;;;34.93;18.73;;;;;;;0.89;100.00;99192.54;1761909;81;20984;-71
2022/11/24 21:06:32;;;;;;;35.95;16.45;;;;;;;0.83;100.00;99192.10;1752430;81;21010;-71
2022/11/24 21:08:59;;;;;;;49.75;17.05;;;;;;;0.87;100.00;99195.16;1754219;81;21103;-71
2022/11/24 21:11:26;;;;;;;34.67;16.30;;;;;;;0.87;100.00;99193.30;1772141;81;21004;-71
2022/11/24 21:13:52;;;;;;;29.85;16.80;;;;;;;0.80;100.00;99194.41;1760078;80;21019;-71
2022/11/24 21:16:31;;;;;;;20.23;13.20;;;;;;;0.85;100.00;99194.57;1735896;81;21063;-71
2022/11/24 21:19:00;;;;;;;24.90;14.13;;;;;;;0.91;100.00;99205.22;1722903;82;21039;-71
2022/11/24 21:21:34;;;;;;;42.85;15.68;;;;;;;0.87;100.00;99196.50;1722423;81;21047;-71
2022/11/24 21:24:05;;;;;;;23.70;14.35;;;;;;;0.82;100.00;99194.98;1732544;82;21071;-71
2022/11/24 21:26:35;;;;;;;32.65;14.83;;;;;;;0.85;100.00;99194.02;1725911;82;21107;-71
2022/11/24 21:29:02;;;;;;;26.48;14.00;;;;;;;0.86;100.00;99201.03;1725034;82;21054;-71
2022/11/24 21:31:28;;;;;;;33.45;14.38;;;;;;;0.83;100.00;99201.48;1718939;81;21073;-72
2022/11/24 21:33:55;;;;;;;;;;;;;;;0.80;100.00;99193.06;1730284;82;21074;-71
2022/11/24 21:36:24;;;;;;;29.75;13.32;;;;;;;0.88;100.00;99207.52;1717200;82;20135;-71
2022/11/24 21:38:56;;;;;;;22.00;13.08;;;;;;;0.79;100.00;99201.62;1729617;82;21118;-71
2022/11/24 21:41:23;;;;;;;29.40;14.47;;;;;;;0.78;100.00;99203.99;1719235;82;21731;-71
2022/11/24 21:43:51;;;;;;;26.93;13.85;;;;;;;0.80;100.00;99201.92;1719840;82;21584;-71
2022/11/24 21:46:18;;;;;;;23.40;14.30;;;;;;;0.79;100.00;99204.30;1728870;82;21079;-71
2022/11/24 21:48:46;;;;;;;18.82;12.25;;;;;;;0.75;100.00;99211.13;1724328;82;21055;-71
2022/11/24 21:51:14;;;;;;;27.20;12.58;;;;;;;0.81;100.00;99208.11;1716741;81;21087;-71
2022/11/24 21:53:41;;;;;;;41.98;15.25;;;;;;;0.85;100.00;99208.77;1728529;82;21499;-71
2022/11/24 21:56:11;;;;;;;;;;;;;;;0.82;100.00;99207.05;1721125;82;21048;-71
2022/11/24 21:58:44;;;;;;;25.68;14.15;;;;;;;0.77;100.00;99206.39;1729467;81;20107;-72
2022/11/24 22:01:10;;;;;;;22.10;12.28;;;;;;;0.81;100.00;99213.47;1721175;82;21637;-71
2022/11/24 22:03:37;;;;;;;39.83;15.78;;;;;;;0.84;100.00;99214.36;1722450;82;21503;-71
2022/11/24 22:06:04;;;;;;;;;;;;;;;0.85;100.00;99221.37;1714810;82;21606;-71
2022/11/24 22:08:31;;;;;;;33.80;13.85;;;;;;;0.79;100.00;99212.34;1719325;82;20417;-71
2022/11/24 22:11:05;;;;;;;26.30;12.10;;;;;;;0.73;100.00;99209.73;1725380;81;21909;-71
2022/11/24 22:13:32;;;;;;;20.35;11.60;;;;;;;0.82;100.00;99216.42;1723585;82;21040;-71
2022/11/24 22:16:04;;;;;;;29.00;12.23;;;;;;;0.82;100.00;99220.45;1708552;81;21054;-71
2022/11/24 22:18:34;;;;;;;19.92;12.50;;;;;;;0.75;100.00;99223.19;1740923;81;21074;-71
2022/11/24 22:21:01;;;;;;;30.85;13.08;;;;;;;0.78;100.00;99231.33;1722667;81;21042;-71
2022/11/24 22:23:29;;;;;;;37.20;12.68;;;;;;;0.84;100.00;99229.92;1736561;81;21474;-71
2022/11/24 22:26:05;;;;;;;29.37;11.50;;;;;;;0.89;100.00;99230.06;1767548;79;21047;-71
2022/11/24 22:28:32;;;;;;;14.80;10.30;;;;;;;0.90;100.00;99231.70;1739433;81;21019;-71
2022/11/24 22:31:08;;;;;;;16.57;11.45;;;;;;;0.89;100.00;99227.89;1724205;81;21087;-71
2022/11/24 22:33:35;;;;;;;26.45;11.83;;;;;;;0.91;100.00;99224.49;1764726;81;21715;-71
2022/11/24 22:36:02;;;;;;;16.80;9.70;;;;;;;0.91;100.00;99219.13;1758228;81;21019;-71
2022/11/24 22:38:29;;;;;;;23.10;11.03;;;;;;;0.84;100.00;99226.42;1753418;81;21443;-71
2022/11/24 22:41:01;;;;;;;14.35;9.80;;;;;;;0.79;100.00;99226.25;1757384;80;21000;-72
2022/11/24 22:43:31;;;;;;;14.40;9.00;;;;;;;0.81;100.00;99229.55;1757430;81;20952;-71
2022/11/24 22:46:07;;;;;;;33.50;10.65;;;;;;;0.81;100.00;99229.55;1737573;81;21083;-71
2022/11/24 22:48:33;;;;;;;17.37;10.05;;;;;;;0.74;100.00;99231.47;1745272;81;21133;-71
2022/11/24 22:51:09;;;;;;;13.50;8.85;;;;;;;0.71;100.00;99232.70;1759932;81;22007;-71
2022/11/24 22:53:37;;;;;;;12.80;8.88;;;;;;;0.73;100.00;99239.20;1745569;81;21035;-71
2022/11/24 22:56:04;;;;;;;;;;;;;;;0.79;100.00;99236.97;1757765;81;21020;-71
2022/11/24 22:58:31;;;;;;;43.45;10.82;;;;;;;0.76;100.00;99234.73;1736483;81;20162;-71
2022/11/24 23:01:06;;;;;;;14.13;8.93;;;;;;;0.65;100.00;99234.11;1742043;81;21027;-71
2022/11/24 23:03:34;;;;;;;15.30;10.03;;;;;;;0.71;100.00;99243.97;1738072;81;21040;-71
2022/11/24 23:06:02;;;;;;;26.55;10.48;;;;;;;0.79;100.00;99241.81;1735401;81;21131;-71
2022/11/24 23:08:32;;;;;;;33.73;11.12;;;;;;;0.80;100.00;99244.80;1748477;81;21012;-71
2022/11/24 23:11:02;;;;;;;24.00;9.85;;;;;;;0.81;100.00;99243.77;1753205;81;21044;-71
2022/11/24 23:13:30;;;;;;;24.18;10.43;;;;;;;0.78;100.00;99252.77;1745509;81;21024;-71
2022/11/24 23:16:05;;;;;;;25.60;9.65;;;;;;;0.78;100.00;99254.10;1761420;81;21099;-72
2022/11/24 23:18:32;;;;;;;23.55;9.50;;;;;;;0.84;100.00;99256.72;1746923;81;21620;-71
2022/11/24 23:21:24;;;;;;;26.93;10.28;;;;;;;0.77;100.00;99261.83;1751674;81;21035;-71
2022/11/24 23:23:51;;;;;;;18.95;9.50;;;;;;;0.76;100.00;99264.20;1766467;81;21356;-71
2022/11/24 23:26:23;;;;;;;16.15;9.78;;;;;;;0.80;100.00;99258.71;1746214;81;21105;-71
2022/11/24 23:28:49;;;;;;;27.42;9.95;;;;;;;0.82;100.00;99264.14;1744178;81;21099;-71
2022/11/24 23:31:18;;;;;;;18.10;9.45;;;;;;;0.78;100.00;99263.48;1709443;83;21095;-71
2022/11/24 23:33:45;;;;;;;17.20;9.35;;;;;;;0.84;100.00;99269.29;1708599;82;21370;-71
2022/11/24 23:36:16;;;;;;;20.90;10.80;;;;;;;0.92;100.00;99269.02;1699625;83;21059;-71
2022/11/24 23:38:44;;;;;;;33.73;10.60;;;;;;;0.92;100.00;99261.77;1720232;82;20992;-71
2022/11/24 23:41:13;;;;;;;19.42;10.10;;;;;;;0.85;100.00;99269.05;1713390;83;21543;-71
2022/11/24 23:43:40;;;;;;;15.18;8.70;;;;;;;0.88;100.00;99265.96;1729032;83;21035;-71
2022/11/24 23:46:10;;;;;;;16.00;8.48;;;;;;;0.94;100.00;99268.27;1713104;82;21032;-71
2022/11/24 23:48:37;;;;;;;27.42;9.03;;;;;;;0.88;100.00;99268.64;1749297;81;20980;-71
2022/11/24 23:51:09;;;;;;;;;;;;;;;0.83;100.00;99268.98;1755844;81;21067;-71
2022/11/24 23:53:35;;;;;;;27.65;8.40;;;;;;;0.85;100.00;99265.58;1723826;81;20122;-71
2022/11/24 23:56:02;;;;;;;26.87;9.03;;;;;;;0.81;100.00;99275.92;1751435;81;21633;-71
2022/11/24 23:58:29;;;;;;;12.93;8.93;;;;;;;0.77;100.00;99269.87;1752918;81;21035;-71
